Flight Track Log - Related Links

Times and Time Zones

All times are in EDT time to prevent confusion due to time zone crossing. See the EJA396 flight status page for this flight to view local times or setup timezone preferences in your user account.

Time Position Orientation Groundspeed Altitude Reporting Facility
EDT Latitude Longitude Course Direction KTS MPH feet Rate Location/Type
Sun 10:35:00 AM 44.5854 -106.0258 107° East  Level FlightAware Approximate
Sun 10:36:00 AM 44.5563 -105.8676 104° East  Level FlightAware Approximate
Sun 10:36:47 AM 44.7419 -106.9006 105° East 238 274 8,300  Level Denver Center
Sun 10:37:00 AM 44.5238 -105.7109 107° East  Level FlightAware Approximate
Sun 10:37:48 AM 44.7239 -106.8033 105° East 254 292 11,200  Level Salt Lake Center
Sun 10:38:00 AM 44.4948 -105.5532 99° East  Level FlightAware Approximate
Sun 10:38:50 AM 44.7036 -106.6836 103° East 288 331 14,200  Level Salt Lake Center
Sun 10:39:00 AM 44.4695 -105.3946 109° East  Level FlightAware Approximate
Sun 10:39:51 AM 44.6819 -106.5533 103° East 333 383 17,200  Level Salt Lake Center
Sun 10:40:00 AM 44.4370 -105.2383 103° East  Level FlightAware Approximate
Sun 10:40:53 AM 44.6561 -106.4089 104° East 371 427 19,200  Level Salt Lake Center
Sun 10:41:00 AM 44.4002 -105.0839 109° East  Level FlightAware Approximate
Sun 10:41:55 AM 44.6278 -106.2525 104° East 407 468 21,300  Level Salt Lake Center
Sun 10:42:00 AM 44.3666 -104.9281 105° East  Level FlightAware Approximate
Sun 10:42:57 AM 44.5911 -106.0625 105° East 420 483 24,300  Level Salt Lake Center
Sun 10:43:58 AM 44.5631 -105.9106 104° East 420 483 26,600 2,244 Climbing Salt Lake Center
Sun 10:45:00 AM 44.5289 -105.7261 105° East 432 497 28,900 2,032 Climbing Salt Lake Center
Sun 10:46:02 AM 44.4986 -105.5689 105° East 436 502 30,800 1,839 Climbing Salt Lake Center
Sun 10:47:04 AM 44.4692 -105.4119 105° East 437 503 32,700 1,839 Climbing Salt Lake Center
Sun 10:48:06 AM 44.4339 -105.2297 105° East 434 499 34,600 1,366 Climbing Salt Lake Center
Sun 10:49:07 AM 44.4017 -105.0714 106° East 440 506 35,500 976 Climbing Salt Lake Center
Sun 10:50:09 AM 44.3622 -104.8769 106° East 459 528 36,600 1,016 Climbing Salt Lake Center
Sun 10:51:11 AM 44.3303 -104.7097 105° East 466 536 37,600 1,065 Climbing Salt Lake Center
Sun 10:52:13 AM 44.2908 -104.5106 105° East 473 544 38,800 1,113 Climbing Salt Lake Center
Sun 10:53:15 AM 44.2569 -104.3417 106° East 472 543 39,900 968 Climbing Salt Lake Center
Sun 10:54:17 AM 44.2225 -104.1739 106° East 469 540 40,800 532 Climbing Salt Lake Center
Sun 10:55:19 AM 44.1817 -103.9778 106° East 471 542 41,000 97 Climbing Salt Lake Center
Sun 10:56:21 AM 44.1456 -103.8028 106° East 485 558 41,000  Level Salt Lake Center
Sun 10:57:23 AM 44.1017 -103.5936 106° East 500 575 41,000  Level Salt Lake Center
Sun 10:58:25 AM 44.0631 -103.4139 107° East 505 581 41,000  Level Salt Lake Center
Sun 10:59:44 AM 44.0131 -103.1811 107° East 500 575 41,000  Level Denver Center
Sun 11:00:46 AM 43.9764 -102.9747 104° East 500 575 41,000  Level Denver Center
Sun 11:01:48 AM 43.9711 -102.7800 92° East 496 571 41,000  Level Denver Center
Sun 11:02:50 AM 43.9633 -102.5897 93° East 494 568 41,000  Level Denver Center
Sun 11:03:52 AM 43.9567 -102.3994 93° East 495 570 41,000  Level Denver Center
Sun 11:04:54 AM 43.9503 -102.2092 93° East 496 571 41,000  Level Denver Center
Sun 11:05:56 AM 43.9408 -101.9817 93° East 494 568 41,000  Level Denver Center
Sun 11:06:58 AM 43.9331 -101.7933 93° East 492 566 41,000  Level Denver Center
Sun 11:08:00 AM 43.9314 -101.6097 91° East 483 556 41,000  Level Denver Center
Sun 11:09:03 AM 43.9239 -101.4219 93° East 489 563 41,000  Level Denver Center
Sun 11:09:38 AM 43.9186 -101.3075 94° East 489 563 41,000  Level Minneapolis Center
Sun 11:10:40 AM 43.9131 -101.1222 92° East 487 560 41,000  Level Minneapolis Center
Sun 11:11:42 AM 43.9042 -100.9333 94° East 490 564 41,000  Level Minneapolis Center
Sun 11:12:43 AM 43.8942 -100.7069 93° East 492 566 41,000  Level Minneapolis Center
Sun 11:13:45 AM 43.8861 -100.5200 93° East 490 564 41,000  Level Minneapolis Center
Sun 11:14:48 AM 43.8761 -100.3300 94° East 494 568 41,000  Level Minneapolis Center
Sun 11:15:50 AM 43.8681 -100.1428 93° East 492 566 41,000  Level Minneapolis Center
Sun 11:16:52 AM 43.8581 -99.9547 94° East 492 566 41,000  Level Minneapolis Center
Sun 11:17:53 AM 43.8506 -99.8042 94° East 493 567 41,000  Level Minneapolis Center
Sun 11:18:56 AM 43.8361 -99.5428 94° East 490 564 41,000  Level Minneapolis Center
Sun 11:19:58 AM 43.8261 -99.3556 94° East 490 564 41,000  Level Minneapolis Center
Sun 11:21:00 AM 43.8147 -99.1683 95° East 491 565 41,000  Level Minneapolis Center
Sun 11:22:02 AM 43.8036 -98.9814 95° East 489 563 41,000  Level Minneapolis Center
Sun 11:23:04 AM 43.7922 -98.7953 95° East 488 562 41,000  Level Minneapolis Center
Sun 11:24:06 AM 43.7789 -98.5900 95° East 491 565 41,000  Level Minneapolis Center
Sun 11:25:08 AM 43.7667 -98.4025 95° East 490 564 41,000  Level Minneapolis Center
Sun 11:26:10 AM 43.7544 -98.2156 95° East 491 565 41,000  Level Minneapolis Center
Sun 11:27:12 AM 43.7394 -97.9903 95° East 492 566 41,000  Level Minneapolis Center
Sun 11:28:14 AM 43.7261 -97.8031 96° East 493 567 41,000  Level Minneapolis Center
Sun 11:29:16 AM 43.7119 -97.6161 96° East 491 565 41,000  Level Minneapolis Center
Sun 11:30:18 AM 43.6992 -97.4308 95° East 489 563 41,000  Level Minneapolis Center
Sun 11:31:20 AM 43.6844 -97.2436 96° East 492 566 41,000  Level Minneapolis Center
Sun 11:32:22 AM 43.6706 -97.0575 96° East 492 566 41,000  Level Minneapolis Center
Sun 11:33:24 AM 43.6531 -96.8353 96° East 489 563 41,000  Level Minneapolis Center
Sun 11:34:27 AM 43.6019 -96.6625 112° Southeast 496 571 41,000  Level Minneapolis Center
Sun 11:35:29 AM 43.5364 -96.5006 119° Southeast 491 565 41,000  Level Minneapolis Center
Sun 11:36:31 AM 43.4706 -96.3381 119° Southeast 491 565 41,000  Level Minneapolis Center
Sun 11:37:33 AM 43.4053 -96.1772 119° Southeast 488 562 41,000  Level Minneapolis Center
Sun 11:38:35 AM 43.3256 -95.9842 120° Southeast 487 560 41,000  Level Minneapolis Center
Sun 11:39:37 AM 43.2600 -95.8225 119° Southeast 488 562 41,000  Level Minneapolis Center
Sun 11:40:39 AM 43.1933 -95.6625 120° Southeast 487 560 41,000  Level Minneapolis Center
Sun 11:41:41 AM 43.1256 -95.5006 120° Southeast 491 565 41,000  Level Minneapolis Center
Sun 11:42:43 AM 43.0592 -95.3386 119° Southeast 491 565 41,000  Level Minneapolis Center
Sun 11:43:45 AM 42.9789 -95.1525 120° Southeast 479 551 41,000  Level Minneapolis Center
Sun 11:44:47 AM 42.9450 -94.9817 105° East 477 549 41,000  Level Minneapolis Center
Sun 11:45:49 AM 42.9431 -94.8006 91° East 482 555 41,000  Level Minneapolis Center
Sun 11:46:51 AM 42.9414 -94.6206 91° East 478 550 41,000  Level Minneapolis Center
Sun 11:47:53 AM 42.9392 -94.4419 91° East 482 555 41,000  Level Minneapolis Center
Sun 11:48:55 AM 42.9603 -94.2656 81° East 476 548 41,000  Level Minneapolis Center
Sun 11:49:58 AM 42.9900 -94.0531 79° East 479 551 41,000  Level Minneapolis Center
Sun 11:51:00 AM 43.0178 -93.8775 78° East 477 549 41,000  Level Minneapolis Center
Sun 11:52:02 AM 43.0425 -93.7008 79° East 478 550 41,000  Level Minneapolis Center
Sun 11:53:04 AM 43.0667 -93.5258 79° East 476 548 41,000  Level Minneapolis Center
Sun 11:54:06 AM 43.0811 -93.3467 84° East 480 552 41,000  Level Minneapolis Center
Sun 11:55:08 AM 43.0150 -93.1561 115° Southeast 471 542 41,000  Level Minneapolis Center
Sun 11:56:10 AM 42.9436 -93.0081 123° Southeast 472 543 41,000  Level Minneapolis Center
Sun 11:57:12 AM 42.8744 -92.8611 123° Southeast 467 537 41,000 -387 Level Minneapolis Center
Sun 11:58:14 AM 42.8050 -92.7142 123° Southeast 466 536 40,200 -1,016 Descending Minneapolis Center
Sun 11:59:16 AM 42.7200 -92.5347 123° Southeast 474 545 38,900 -1,313 Descending Minneapolis Center
Sun 12:00:22 PM 42.6472 -92.3836 123° Southeast 481 554 37,400 -1,395 Descending Minneapolis Center
Sun 12:01:25 PM 42.5761 -92.2367 123° Southeast 473 544 35,900 -1,536 Descending Chicago Center
Sun 12:02:27 PM 42.4928 -92.0622 123° Southeast 470 541 34,200 -1,548 Descending Chicago Center
Sun 12:03:29 PM 42.4222 -91.9169 123° Southeast 471 542 32,700 -1,452 Descending Chicago Center
Sun 12:04:31 PM 42.3500 -91.7678 123° Southeast 481 554 31,200 -1,500 Descending Chicago Center
Sun 12:05:33 PM 42.2781 -91.6206 123° Southeast 480 552 29,600 -1,790 Descending Chicago Center
Sun 12:06:35 PM 42.1919 -91.4467 124° Southeast 473 544 27,500 -1,839 Descending Chicago Center
Sun 12:07:37 PM 42.1192 -91.2997 124° Southeast 475 547 25,800 -1,645 Descending Chicago Center
Sun 12:08:39 PM 42.0472 -91.1550 124° Southeast 472 543 24,100 -871 Descending Chicago Center
Sun 12:09:41 PM 41.9789 -91.0200 124° Southeast 446 513 24,000 -48 Descending Chicago Center
Sun 12:10:43 PM 41.8947 -90.8514 124° Southeast 456 525 24,000 -484 Level Chicago Center
Sun 12:11:45 PM 41.8258 -90.7161 124° Southeast 446 513 23,000 -484 Descending Chicago Center
Sun 12:12:47 PM 41.7628 -90.5903 124° Southeast 439 505 23,000  Level Chicago Center
Sun 12:13:50 PM 41.6919 -90.4550 125° Southeast 443 510 23,000  Level Chicago Center
Sun 12:14:52 PM 41.5983 -90.3028 129° Southeast 441 507 23,000  Level Chicago Center
Sun 12:15:54 PM 41.5206 -90.1744 129° Southeast 443 510 23,000  Level Chicago Center
Sun 12:16:56 PM 41.4428 -90.0456 129° Southeast 446 513 23,000 -1,065 Level Chicago Center
Sun 12:17:58 PM 41.3658 -89.9219 130° Southeast 435 501 20,800 -2,177 Descending Chicago Center
Sun 12:19:00 PM 41.2908 -89.8000 129° Southeast 427 491 18,500 -2,129 Descending Chicago Center
Sun 12:20:02 PM 41.2197 -89.6831 129° Southeast 406 467 16,400 -2,323 Descending Chicago Center
Sun 12:21:04 PM 41.1494 -89.5736 130° Southeast 390 449 13,700 -3,097 Descending Chicago Center
Sun 12:22:06 PM 41.0692 -89.4511 131° Southeast 369 425 10,000 -1,790 Descending Chicago Center
Sun 12:23:08 PM 41.0503 -89.3236 101° East 379 436 10,000  Level Chicago Center
Sun 12:24:10 PM 41.0964 -89.2050 63° Northeast 369 425 10,000  Level Chicago Center
Sun 12:25:13 PM 41.1503 -89.0858 59° Northeast 364 419 10,000  Level Chicago Center
Sun 12:26:14 PM 41.2003 -88.9722 60° Northeast 360 414 10,000  Level Chicago Center
Sun 12:27:17 PM 41.2511 -88.8589 59° Northeast 360 414 10,000  Level Chicago Center
Sun 12:28:19 PM 41.2958 -88.7528 61° Northeast 329 379 10,000 -871 Level Chicago Center
Sun 12:29:21 PM 41.3025 -88.6247 86° East 292 336 8,200 -1,887 Descending Chicago Center
Sun 12:30:23 PM 41.3267 -88.5281 72° East 290 334 6,100 -1,065 Descending Chicago Center
Sun 12:31:25 PM 41.3753 -88.4544 49° Northeast 280 322 6,000 -48 Descending Chicago Center
Sun 12:32:27 PM 41.4039 -88.3614 68° East 275 316 6,000  Level Chicago Center
Sun 12:33:29 PM 41.4339 -88.2667 67° East 276 318 6,000 -242 Level Chicago Center
Sun 12:34:31 PM 41.4703 -88.1558 66° East 274 315 5,500 -726 Descending Chicago Center
Sun 12:35:33 PM 41.5208 -88.0839 47° Northeast 268 308 4,500 -726 Descending Chicago Center
Sun 12:36:35 PM 41.5758 -88.0208 41° Northeast 261 300 4,000 -242 Descending Chicago Center
Sun 12:37:37 PM 41.6286 -87.9517 44° Northeast 263 303 4,000 -339 Level Chicago Center
Sun 12:38:39 PM 41.6794 -87.8856 44° Northeast 258 297 3,300 -823 Descending Chicago Center
Sun 12:39:41 PM 41.7189 -87.8361 43° Northeast 222 255 2,300 -919 Descending Chicago Center
Sun 12:40:43 PM 41.7528 -87.7975 40° Northeast 184 212 1,400 -672 Descending Chicago Center
Sun 12:41:46 PM 41.7797 -87.7653 42° Northeast 149 171 900 -476 Descending Chicago Center

Login

Don't have an account? Register now (free) for customized features, flight alerts, and more!